This is the latest recevied weather packets stored in our database for station/object KM4KMO-14. If no packets are shown the sender has not sent any weather packets the latest 10 day(s).
| Time | Temp. | Humidity | Pressure | Rain* | Wind** | Luminosity | Snow |
|---|---|---|---|---|---|---|---|
| 1777157872 | 21.67° C | 85% | 1005.5 hPa | 0 mm | - | - | - |
| 1777156972 | 21.67° C | 87% | 1005.4 hPa | 0 mm | - | - | - |
| 1777156072 | 21.67° C | 87% | 1005.1 hPa | 0 mm | - | - | - |
| 1777155172 | 21.11° C | 88% | 1005.3 hPa | 0 mm | - | - | - |
| 1777154272 | 21.11° C | 87% | 1005.4 hPa | 0 mm | - | - | - |
| 1777153372 | 21.11° C | 86% | 1005.6 hPa | 0 mm | - | - | - |
| 1777152472 | 21.67° C | 86% | 1005.3 hPa | 0 mm | - | - | - |
| 1777151572 | 21.67° C | 84% | 1005.3 hPa | 0 mm | - | - | - |
| 1777150672 | 21.67° C | 85% | 1005.3 hPa | 0 mm | - | - | - |
| 1777149772 | 21.67° C | 84% | 1005.2 hPa | 0 mm | - | - | - |
| 1777148873 | 21.67° C | 85% | 1005.4 hPa | 0 mm | - | - | - |
| 1777147973 | 22.22° C | 83% | 1005.6 hPa | 0 mm | - | - | - |
| 1777147073 | 22.22° C | 82% | 1005.6 hPa | 0 mm | - | - | - |
| 1777146173 | 22.78° C | 81% | 1005.8 hPa | 0 mm | - | - | - |
| 1777145273 | 22.22° C | 81% | 1005.8 hPa | 0 mm | - | - | - |
| 1777144373 | 22.22° C | 81% | 1006.1 hPa | 0 mm | - | - | - |
| 1777143473 | 22.22° C | 81% | 1006.2 hPa | 0 mm | - | - | - |
| 1777142573 | 22.22° C | 79% | 1006.3 hPa | 0 mm | - | - | - |
| 1777141673 | 22.78° C | 79% | 1006.3 hPa | 0 mm | - | - | - |
| 1777140773 | 22.22° C | 81% | 1006.5 hPa | 0 mm | - | - | - |
| 1777139873 | 22.22° C | 82% | 1006.8 hPa | 0 mm | - | - | - |
| 1777138973 | 21.67° C | 86% | 1006.9 hPa | 0 mm | - | - | - |
| 1777138073 | 21.11° C | 87% | 1007 hPa | 0 mm | - | - | - |
| 1777137173 | 21.11° C | 86% | 1007.1 hPa | 0 mm | - | - | - |
| 1777136273 | 20.56° C | 87% | 1007.3 hPa | 0 mm | - | - | - |
* Rain latest hour (hover to see other rain measurements)
** Current wind speed in m/s (hover to see current wind gust speed)